createdAt,value
2022-09-20T00:04:40.559Z,0.5
2022-09-20T00:11:00.470Z,0.5
2022-09-20T00:17:23.548Z,0.3
2022-09-20T00:23:43.562Z,0.3
2022-09-20T00:30:06.527Z,0.8
2022-09-20T00:36:26.539Z,0.8
2022-09-20T00:42:49.490Z,1.1
2022-09-20T00:49:09.528Z,1.1
2022-09-20T00:55:32.498Z,0.8
2022-09-20T01:01:52.660Z,0.8
2022-09-20T01:08:15.493Z,1.1
2022-09-20T01:14:35.572Z,1.1
2022-09-20T01:20:58.508Z,0.5
2022-09-20T01:27:18.560Z,0.5
2022-09-20T01:33:41.523Z,1.6
2022-09-20T01:40:01.661Z,1.6
2022-09-20T01:46:24.645Z,0.7
2022-09-20T01:52:44.499Z,0.7
2022-09-20T01:59:22.983Z,0.2
2022-09-20T02:05:27.525Z,0.2
2022-09-20T02:11:50.566Z,1.9
2022-09-20T02:18:10.492Z,1.9
2022-09-20T02:24:33.496Z,2
2022-09-20T02:30:53.530Z,2
2022-09-20T02:37:16.528Z,0.6
2022-09-20T02:43:36.484Z,0.6
2022-09-20T02:49:59.581Z,1.8
2022-09-20T02:56:19.498Z,1.8
2022-09-20T03:02:42.595Z,1.6
2022-09-20T03:09:02.504Z,1.6
2022-09-20T03:15:25.530Z,1.4
2022-09-20T03:21:45.558Z,1.4
2022-09-20T03:28:08.535Z,3.1
2022-09-20T03:51:15.488Z,1.6
2022-09-20T03:57:35.478Z,1.6
2022-09-20T04:03:58.508Z,2.2
2022-09-20T04:10:18.504Z,2.2
2022-09-20T04:16:41.628Z,2.4
2022-09-20T04:23:01.508Z,2.4
2022-09-20T04:29:24.500Z,2.9
2022-09-20T04:35:44.549Z,2.9
2022-09-20T04:42:07.507Z,1.3
2022-09-20T04:48:27.557Z,1.3
2022-09-20T04:54:50.528Z,2
2022-09-20T05:01:10.520Z,2
2022-09-20T05:07:33.583Z,0.4
2022-09-20T05:13:53.529Z,0.4
2022-09-20T05:20:16.518Z,1.3
2022-09-20T05:26:36.576Z,1.3
2022-09-20T05:32:59.585Z,2.6
2022-09-20T05:39:19.580Z,2.6
2022-09-20T05:45:42.600Z,1.5
2022-09-20T05:52:02.578Z,1.5
2022-09-20T05:58:25.537Z,2.3
2022-09-20T06:04:45.554Z,2.3
2022-09-20T06:11:08.523Z,3.7
2022-09-20T06:17:28.494Z,3.7
2022-09-20T06:23:51.540Z,1.4
2022-09-20T06:30:11.568Z,1.4
2022-09-20T06:36:34.615Z,2.4
2022-09-20T06:42:54.547Z,2.4
2022-09-20T06:49:17.563Z,1.9
2022-09-20T06:55:37.540Z,1.9
2022-09-20T07:02:00.611Z,2.5
2022-09-20T07:08:20.528Z,2.5
2022-09-20T07:14:43.535Z,2.3
2022-09-20T07:21:03.601Z,2.3
2022-09-20T07:27:29.292Z,5.4
2022-09-20T07:33:46.532Z,5.4
2022-09-20T07:40:09.643Z,2.3
2022-09-20T07:46:29.499Z,2.3
2022-09-20T07:52:52.559Z,3.1
2022-09-20T07:59:12.535Z,3.1
2022-09-20T08:05:35.516Z,3.3
2022-09-20T08:11:55.611Z,3.3
2022-09-20T08:18:18.540Z,2.7
2022-09-20T08:24:38.519Z,2.7
2022-09-20T08:31:01.490Z,1.8
2022-09-20T08:37:21.635Z,1.8
2022-09-20T08:43:45.465Z,0.9
2022-09-20T08:50:11.861Z,0.9
2022-09-20T09:12:53.466Z,2.9
2022-09-20T09:19:13.480Z,2.9
2022-09-20T09:25:36.586Z,2.1
2022-09-20T09:31:56.603Z,2.1
2022-09-20T09:38:19.521Z,3.2
2022-09-20T09:44:39.618Z,3.2
2022-09-20T09:51:02.764Z,0.9
2022-09-20T09:57:22.479Z,0.9
2022-09-20T10:03:45.524Z,1.8
2022-09-20T10:10:05.609Z,1.8
2022-09-20T10:16:28.732Z,0.8
2022-09-20T10:23:07.001Z,0.8
2022-09-20T10:29:11.579Z,0.9
2022-09-20T10:35:31.532Z,0.9
2022-09-20T10:41:54.509Z,0.7
2022-09-20T10:48:14.563Z,0.7
2022-09-20T10:54:37.492Z,0.9
2022-09-20T11:00:57.694Z,0.9
2022-09-20T11:07:20.673Z,0.6
2022-09-20T11:13:40.551Z,0.6
2022-09-20T11:20:07.036Z,0.3
2022-09-20T11:26:23.647Z,0.3
2022-09-20T11:32:46.506Z,0.2
2022-09-20T11:39:06.936Z,0.2
2022-09-20T11:45:29.673Z,0.6
2022-09-20T11:51:49.577Z,0.6
2022-09-20T11:58:12.472Z,0.8
2022-09-20T12:04:34.400Z,0.8
2022-09-20T12:10:56.504Z,0.2
2022-09-20T12:17:16.476Z,0.2
2022-09-20T12:23:39.599Z,0.4
2022-09-20T12:29:59.504Z,0.4
2022-09-20T12:36:22.836Z,0.7
2022-09-20T12:42:42.494Z,0.7
2022-09-20T12:49:05.621Z,0.6
2022-09-20T12:55:25.537Z,0.6
2022-09-20T13:01:48.560Z,0.7
2022-09-20T13:08:08.579Z,0.7
2022-09-20T13:14:31.499Z,0.6
2022-09-20T13:20:51.617Z,0.6
2022-09-20T13:27:19.199Z,1.1
2022-09-20T13:33:34.472Z,1.1
2022-09-20T13:39:57.623Z,0.5
2022-09-20T13:46:17.549Z,0.5
2022-09-20T13:52:40.592Z,0.4
2022-09-20T13:59:00.562Z,0.4
2022-09-20T14:05:23.520Z,0.4
2022-09-20T14:11:43.567Z,0.4
2022-09-20T14:18:06.498Z,0.1
2022-09-20T14:41:30.455Z,0.2
2022-09-20T14:47:50.485Z,0.2
2022-09-20T14:54:13.517Z,0.6
2022-09-20T15:00:33.576Z,0.6
2022-09-20T15:06:56.500Z,0.4
2022-09-20T15:13:16.531Z,0.4
2022-09-20T15:19:39.505Z,0.5
2022-09-20T15:25:59.559Z,0.5
2022-09-20T15:32:22.492Z,0.2
2022-09-20T15:38:42.539Z,0.2
2022-09-20T15:45:05.953Z,0.8
2022-09-20T15:51:25.685Z,0.8
2022-09-20T15:57:49.773Z,0.4
2022-09-20T16:04:09.503Z,0.4
2022-09-20T16:10:32.506Z,0.1
2022-09-20T16:16:52.638Z,0.1
2022-09-20T16:23:15.496Z,0.5
2022-09-20T16:29:35.590Z,0.5
2022-09-20T16:35:58.505Z,0.5
2022-09-20T16:42:18.514Z,0.5
2022-09-20T16:48:41.520Z,0.1
2022-09-20T16:55:01.499Z,0.1
2022-09-20T17:01:24.591Z,0.3
2022-09-20T17:07:44.500Z,0.3
2022-09-20T17:14:07.496Z,0.9
2022-09-20T17:20:27.488Z,0.9
2022-09-20T17:26:50.578Z,1.2
2022-09-20T17:33:10.527Z,1.2
2022-09-20T17:39:33.465Z,0.5
2022-09-20T17:45:53.530Z,0.5
2022-09-20T17:52:16.488Z,0.8
2022-09-20T17:58:36.488Z,0.8
2022-09-20T18:04:59.486Z,0.5
2022-09-20T18:11:19.491Z,0.5
2022-09-20T18:17:42.526Z,0.1
2022-09-20T18:24:02.474Z,0.1
2022-09-20T18:30:25.568Z,1.6
2022-09-20T18:36:45.491Z,1.6
2022-09-20T18:43:08.492Z,0.7
2022-09-20T18:49:28.559Z,0.7
2022-09-20T18:55:51.481Z,1.2
2022-09-20T19:02:11.673Z,1.2
2022-09-20T19:08:34.752Z,1.7
2022-09-20T19:14:54.484Z,1.7
2022-09-20T19:21:17.547Z,1.6
2022-09-20T19:27:37.493Z,1.6
2022-09-20T19:34:00.580Z,0.9
2022-09-20T19:40:20.572Z,0.9
2022-09-20T19:46:43.664Z,0.3
2022-09-20T20:03:08.221Z,1.5
2022-09-20T20:09:31.018Z,3
2022-09-20T20:15:50.581Z,3
2022-09-20T20:22:13.564Z,3
2022-09-20T20:28:33.518Z,3
2022-09-20T20:34:56.527Z,1.5
2022-09-20T20:41:16.598Z,1.5
2022-09-20T20:47:39.469Z,1.3
2022-09-20T20:53:59.559Z,1.3
2022-09-20T21:00:22.545Z,1.8
2022-09-20T21:06:42.514Z,1.8
2022-09-20T21:13:05.546Z,0.8
2022-09-20T21:19:25.523Z,0.8
2022-09-20T21:25:48.517Z,1.1
2022-09-20T21:32:08.481Z,1.1
2022-09-20T21:38:31.532Z,1.6
2022-09-20T21:44:51.491Z,1.6
2022-09-20T21:51:14.497Z,1.6
2022-09-20T21:57:34.568Z,1.6
2022-09-20T22:21:52.489Z,4.7
2022-09-20T22:28:12.514Z,4.7
2022-09-20T22:34:35.519Z,4.7
2022-09-20T22:40:55.581Z,4.7
2022-09-20T22:47:18.518Z,2.2
2022-09-20T22:53:38.615Z,2.2
2022-09-20T23:00:01.523Z,1.9
2022-09-20T23:06:21.541Z,1.9
2022-09-20T23:12:44.487Z,1.5
2022-09-20T23:19:04.582Z,1.5
2022-09-20T23:25:27.531Z,1.7
2022-09-20T23:31:47.561Z,1.7
2022-09-20T23:38:10.576Z,3.3
2022-09-20T23:44:30.502Z,3.3
2022-09-20T23:50:53.547Z,3.5
2022-09-20T23:57:13.523Z,3.5
